createdAt,value
2022-09-20T00:01:36.172Z,83.50
2022-09-20T00:04:06.953Z,83.70
2022-09-20T00:06:36.059Z,83.90
2022-09-20T00:09:06.265Z,84.30
2022-09-20T00:11:36.938Z,84.40
2022-09-20T00:14:08.694Z,84.30
2022-09-20T00:16:42.136Z,84.30
2022-09-20T00:19:19.315Z,84.70
2022-09-20T00:21:47.352Z,85.00
2022-09-20T00:24:16.042Z,84.70
2022-09-20T00:26:44.099Z,86.00
2022-09-20T00:29:12.710Z,85.90
2022-09-20T00:31:42.783Z,86.00
2022-09-20T00:34:44.818Z,85.80
2022-09-20T00:37:13.241Z,85.40
2022-09-20T00:39:41.279Z,85.50
2022-09-20T00:42:15.382Z,85.30
2022-09-20T00:44:57.197Z,85.70
2022-09-20T00:47:42.420Z,85.50
2022-09-20T00:50:26.191Z,84.90
2022-09-20T00:53:00.521Z,86.00
2022-09-20T00:55:30.252Z,86.00
2022-09-20T00:58:01.230Z,86.50
2022-09-20T01:00:29.773Z,86.30
2022-09-20T01:03:06.133Z,86.90
2022-09-20T01:05:35.535Z,86.00
2022-09-20T01:08:05.179Z,86.10
2022-09-20T01:10:33.954Z,85.80
2022-09-20T01:13:01.974Z,85.80
2022-09-20T01:15:33.266Z,85.70
2022-09-20T01:18:04.606Z,85.80
2022-09-20T01:20:37.787Z,86.00
2022-09-20T01:23:32.247Z,86.00
2022-09-20T01:26:53.380Z,85.70
2022-09-20T01:29:46.440Z,85.70
2022-09-20T01:32:20.698Z,85.50
2022-09-20T01:34:54.579Z,84.80
2022-09-20T01:37:28.397Z,84.60
2022-09-20T01:40:12.924Z,84.30
2022-09-20T01:42:59.436Z,85.00
2022-09-20T01:45:31.868Z,85.30
2022-09-20T01:48:14.566Z,85.40
2022-09-20T01:51:26.972Z,85.30
2022-09-20T01:54:46.887Z,84.70
2022-09-20T01:57:55.170Z,84.10
2022-09-20T02:00:27.765Z,84.20
2022-09-20T02:03:52.807Z,84.40
2022-09-20T02:06:48.706Z,85.50
2022-09-20T02:10:07.580Z,85.80
2022-09-20T02:12:54.396Z,86.00
2022-09-20T02:15:48.673Z,86.30
2022-09-20T02:18:38.876Z,86.70
2022-09-20T02:21:24.024Z,87.70
2022-09-20T02:24:11.791Z,88.30
2022-09-20T02:26:52.112Z,88.80
2022-09-20T02:29:34.045Z,89.80
2022-09-20T02:32:21.190Z,90.70
2022-09-20T02:35:28.963Z,90.90
2022-09-20T02:38:12.497Z,91.00
2022-09-20T02:41:12.060Z,90.30
2022-09-20T02:43:53.838Z,90.20
2022-09-20T02:46:29.918Z,90.00
2022-09-20T02:49:08.542Z,89.30
2022-09-20T02:51:42.632Z,88.90
2022-09-20T02:54:29.737Z,88.70
2022-09-20T02:57:08.794Z,88.60
2022-09-20T02:59:46.484Z,89.10
2022-09-20T03:02:27.693Z,89.20
2022-09-20T03:05:11.195Z,89.50
2022-09-20T03:07:57.736Z,89.80
2022-09-20T03:10:39.778Z,89.80
2022-09-20T03:13:34.099Z,89.90
2022-09-20T03:16:18.189Z,90.00
2022-09-20T03:18:58.677Z,90.00
2022-09-20T03:21:47.564Z,90.00
2022-09-20T03:24:32.332Z,89.10
2022-09-20T03:27:18.697Z,88.60
2022-09-20T03:30:15.101Z,88.70
2022-09-20T03:33:04.050Z,88.60
2022-09-20T03:35:53.583Z,88.90
2022-09-20T03:38:55.787Z,89.30
2022-09-20T03:41:48.020Z,89.60
2022-09-20T03:44:43.487Z,89.60
2022-09-20T03:47:32.979Z,89.20
2022-09-20T03:50:31.925Z,89.10
2022-09-20T03:53:40.496Z,89.80
2022-09-20T03:56:38.346Z,90.10
2022-09-20T03:59:28.138Z,90.10
2022-09-20T04:02:29.662Z,90.10
2022-09-20T04:05:04.250Z,90.40
2022-09-20T04:07:48.986Z,90.30
2022-09-20T04:10:45.483Z,90.20
2022-09-20T04:13:31.906Z,90.60
2022-09-20T04:16:19.967Z,91.10
2022-09-20T04:18:57.530Z,90.90
2022-09-20T04:21:35.722Z,90.90
2022-09-20T04:24:14.586Z,90.60
2022-09-20T04:26:49.420Z,89.90
2022-09-20T04:29:34.913Z,89.50
2022-09-20T04:32:17.434Z,89.20
2022-09-20T04:35:12.803Z,89.60
2022-09-20T04:37:44.953Z,90.10
2022-09-20T04:40:34.126Z,89.60
2022-09-20T04:43:31.969Z,88.80
2022-09-20T04:46:57.390Z,88.50
2022-09-20T04:50:11.877Z,89.40
2022-09-20T04:53:21.971Z,90.60
2022-09-20T04:55:55.575Z,91.00
2022-09-20T04:58:45.180Z,91.20
2022-09-20T05:02:24.290Z,92.00
2022-09-20T05:05:48.252Z,91.70
2022-09-20T05:08:58.775Z,92.00
2022-09-20T05:11:55.580Z,92.40
2022-09-20T05:14:47.407Z,92.30
2022-09-20T05:17:44.714Z,92.30
2022-09-20T05:20:45.155Z,92.50
2022-09-20T05:24:00.831Z,92.50
2022-09-20T05:26:46.972Z,92.80
2022-09-20T05:29:25.466Z,92.60
2022-09-20T05:32:05.003Z,92.10
2022-09-20T05:34:42.822Z,91.60
2022-09-20T05:37:28.423Z,91.40
2022-09-20T05:40:07.437Z,90.70
2022-09-20T05:42:47.552Z,90.30
2022-09-20T05:45:41.012Z,89.60
2022-09-20T05:48:19.491Z,88.50
2022-09-20T05:51:00.522Z,88.30
2022-09-20T05:54:24.055Z,88.00
2022-09-20T05:57:05.447Z,87.60
2022-09-20T05:59:55.024Z,87.80
2022-09-20T06:02:39.682Z,87.90
2022-09-20T06:05:17.192Z,87.90
2022-09-20T06:08:12.015Z,88.30
2022-09-20T06:10:58.374Z,88.80
2022-09-20T06:13:59.693Z,90.00
2022-09-20T06:16:44.381Z,90.20
2022-09-20T06:19:28.414Z,90.10
2022-09-20T06:22:03.750Z,89.30
2022-09-20T06:24:40.270Z,90.00
2022-09-20T06:27:19.713Z,89.60
2022-09-20T06:29:58.628Z,88.90
2022-09-20T06:32:27.809Z,88.60
2022-09-20T06:34:55.967Z,87.70
2022-09-20T06:37:58.783Z,87.40
2022-09-20T06:40:57.443Z,87.90
2022-09-20T06:43:26.075Z,88.30
2022-09-20T06:45:55.468Z,88.40
2022-09-20T06:48:25.185Z,88.80
2022-09-20T06:50:53.445Z,89.40
2022-09-20T06:53:30.240Z,90.00
2022-09-20T06:55:59.003Z,90.10
2022-09-20T06:58:28.692Z,89.00
2022-09-20T07:00:58.266Z,88.80
2022-09-20T07:03:26.300Z,88.40
2022-09-20T07:05:54.299Z,87.20
2022-09-20T07:08:22.286Z,87.40
2022-09-20T07:10:50.886Z,87.60
2022-09-20T07:13:20.855Z,87.20
2022-09-20T07:15:49.524Z,87.10
2022-09-20T07:18:18.879Z,86.60
2022-09-20T07:20:47.134Z,86.20
2022-09-20T07:23:16.325Z,85.30
2022-09-20T07:25:44.314Z,83.90
